VAS918 LEPA-LOWI
Flight info
| Callsign | VAS918 |
|---|---|
| Flight time | N/A |
| Altitude | 36000 |
| Route | MEROS DCT LAPIT DCT CHELY DCT LUMAS DCT UNANA DCT STP DCT RAPED DCT PIGOS DCT EKSID DCT NOSTA DCT NOPMU DCT ABESI DCT UTAVO DCT ROLSA DCT DEGES DCT GAMSA N871 MADEB MADEB1B |
| Aircraft | B738/M-SDE2E3FGHIRWXY/LB1 |
Departure
| Time | 2026-05-04 15:28 |
|---|---|
| Airport | Palma de Mallorca Airport (LEPA) |
Arrival
| Time | N/A |
|---|---|
| Airport | Innsbruck Airport (LOWI) |
| Time | Latitude | Longitude | Altitude | Speed | Heading |
|---|---|---|---|---|---|
| 2026-05-04 14:50 | 39.54349 | 2.72768 | 27 ft | 0 kts | 328° |
| 2026-05-04 14:51 | 39.54348 | 2.72768 | 29 ft | 0 kts | 328° |
| 2026-05-04 15:11 | 39.54332 | 2.72781 | 29 ft | 3 kts | 328° |
| 2026-05-04 15:11 | 39.54314 | 2.72795 | 29 ft | 2 kts | 328° |
| 2026-05-04 15:12 | 39.54296 | 2.72804 | 29 ft | 3 kts | 21° |
| 2026-05-04 15:12 | 39.54279 | 2.72787 | 29 ft | 3 kts | 56° |
| 2026-05-04 15:12 | 39.54267 | 2.72763 | 29 ft | 3 kts | 58° |
| 2026-05-04 15:12 | 39.54265 | 2.72759 | 29 ft | 0 kts | 58° |
| 2026-05-04 15:16 | 39.54271 | 2.72771 | 29 ft | 3 kts | 58° |
| 2026-05-04 15:16 | 39.54273 | 2.72814 | 29 ft | 7 kts | 101° |
| 2026-05-04 15:16 | 39.54324 | 2.72964 | 29 ft | 12 kts | 58° |
| 2026-05-04 15:17 | 39.54370 | 2.73059 | 29 ft | 13 kts | 58° |
| 2026-05-04 15:17 | 39.54459 | 2.73247 | 29 ft | 12 kts | 59° |
| 2026-05-04 15:17 | 39.54501 | 2.73337 | 29 ft | 12 kts | 59° |
| 2026-05-04 15:18 | 39.54542 | 2.73425 | 29 ft | 11 kts | 59° |
| 2026-05-04 15:18 | 39.54582 | 2.73511 | 29 ft | 11 kts | 59° |
| 2026-05-04 15:18 | 39.54624 | 2.73591 | 29 ft | 11 kts | 54° |
| 2026-05-04 15:19 | 39.54690 | 2.73733 | 29 ft | 10 kts | 59° |
| 2026-05-04 15:19 | 39.54759 | 2.73877 | 29 ft | 10 kts | 60° |
| 2026-05-04 15:20 | 39.54792 | 2.73950 | 29 ft | 9 kts | 58° |
| 2026-05-04 15:20 | 39.54840 | 2.73998 | 29 ft | 9 kts | 2° |
| 2026-05-04 15:20 | 39.54897 | 2.73965 | 29 ft | 9 kts | 330° |
| 2026-05-04 15:20 | 39.54946 | 2.73994 | 29 ft | 9 kts | 52° |
| 2026-05-04 15:21 | 39.55002 | 2.73990 | 29 ft | 9 kts | 330° |
| 2026-05-04 15:21 | 39.55053 | 2.73950 | 29 ft | 9 kts | 329° |
| 2026-05-04 15:21 | 39.55176 | 2.73854 | 29 ft | 12 kts | 328° |
| 2026-05-04 15:22 | 39.55248 | 2.73793 | 29 ft | 13 kts | 329° |
| 2026-05-04 15:22 | 39.55327 | 2.73734 | 29 ft | 14 kts | 329° |
| 2026-05-04 15:22 | 39.55468 | 2.73624 | 29 ft | 14 kts | 328° |
| 2026-05-04 15:23 | 39.55573 | 2.73541 | 29 ft | 13 kts | 329° |
| 2026-05-04 15:23 | 39.55653 | 2.73510 | 29 ft | 13 kts | 27° |
| 2026-05-04 15:23 | 39.55703 | 2.73601 | 29 ft | 12 kts | 59° |
| 2026-05-04 15:23 | 39.55733 | 2.73663 | 29 ft | 12 kts | 58° |
| 2026-05-04 15:24 | 39.55818 | 2.73844 | 29 ft | 11 kts | 59° |
| 2026-05-04 15:24 | 39.55900 | 2.74016 | 29 ft | 11 kts | 58° |
| 2026-05-04 15:25 | 39.55939 | 2.74099 | 29 ft | 11 kts | 59° |
| 2026-05-04 15:25 | 39.55974 | 2.74176 | 29 ft | 9 kts | 59° |
| 2026-05-04 15:25 | 39.56016 | 2.74234 | 29 ft | 9 kts | 38° |
| 2026-05-04 15:26 | 39.56117 | 2.74320 | 29 ft | 8 kts | 33° |
| 2026-05-04 15:26 | 39.56165 | 2.74361 | 29 ft | 8 kts | 32° |
| 2026-05-04 15:26 | 39.56228 | 2.74257 | 29 ft | 16 kts | 241° |
| 2026-05-04 15:27 | 39.56074 | 2.73936 | 29 ft | 77 kts | 238° |
| 2026-05-04 15:27 | 39.55139 | 2.71946 | 543 ft | 157 kts | 242° |
| 2026-05-04 15:28 | 39.53942 | 2.69338 | 1853 ft | 190 kts | 234° |
| 2026-05-04 15:28 | 39.53177 | 2.67858 | 2463 ft | 196 kts | 236° |
| 2026-05-04 15:28 | 39.51661 | 2.64828 | 3702 ft | 207 kts | 236° |
| 2026-05-04 15:29 | 39.50880 | 2.63251 | 4426 ft | 206 kts | 237° |
| 2026-05-04 15:30 | 39.45770 | 2.61058 | 5684 ft | 251 kts | 147° |
| 2026-05-04 15:30 | 39.44208 | 2.67662 | 7474 ft | 276 kts | 94° |
| 2026-05-04 15:31 | 39.44157 | 2.72696 | 8587 ft | 283 kts | 94° |
| 2026-05-04 15:31 | 39.44123 | 2.75304 | 9170 ft | 287 kts | 94° |
| 2026-05-04 15:32 | 39.43950 | 2.83376 | 10490 ft | 328 kts | 95° |
| 2026-05-04 15:32 | 39.43780 | 2.89731 | 11047 ft | 371 kts | 94° |
| 2026-05-04 15:33 | 39.43597 | 2.96496 | 12490 ft | 379 kts | 94° |
| 2026-05-04 15:34 | 39.43300 | 3.06865 | 14580 ft | 392 kts | 94° |
| 2026-05-04 15:34 | 39.43196 | 3.10413 | 15169 ft | 399 kts | 94° |
| 2026-05-04 15:34 | 39.42979 | 3.17656 | 16392 ft | 409 kts | 94° |
| 2026-05-04 15:35 | 39.43239 | 3.25100 | 17550 ft | 423 kts | 77° |
| 2026-05-04 15:35 | 39.44132 | 3.28756 | 17941 ft | 428 kts | 66° |
| 2026-05-04 15:35 | 39.45505 | 3.32140 | 17945 ft | 426 kts | 58° |
| 2026-05-04 15:36 | 39.48599 | 3.38700 | 17938 ft | 426 kts | 57° |
| 2026-05-04 15:36 | 39.50158 | 3.41967 | 17950 ft | 426 kts | 57° |
| 2026-05-04 15:36 | 39.51704 | 3.45245 | 17985 ft | 429 kts | 57° |
| 2026-05-04 15:37 | 39.53260 | 3.48584 | 18424 ft | 434 kts | 58° |
| 2026-05-04 15:37 | 39.54808 | 3.51938 | 19044 ft | 435 kts | 58° |
| 2026-05-04 15:37 | 39.56351 | 3.55299 | 19596 ft | 439 kts | 58° |
| 2026-05-04 15:37 | 39.57934 | 3.58760 | 20088 ft | 444 kts | 58° |
| 2026-05-04 15:38 | 39.59499 | 3.62190 | 20544 ft | 450 kts | 58° |
| 2026-05-04 15:38 | 39.61111 | 3.65728 | 21026 ft | 454 kts | 59° |
| 2026-05-04 15:38 | 39.62727 | 3.69278 | 21500 ft | 459 kts | 59° |
| 2026-05-04 15:38 | 39.64346 | 3.72837 | 21951 ft | 463 kts | 59° |
| 2026-05-04 15:39 | 39.65993 | 3.76460 | 22408 ft | 468 kts | 59° |
| 2026-05-04 15:39 | 39.67637 | 3.80082 | 22859 ft | 472 kts | 59° |
| 2026-05-04 15:39 | 39.70979 | 3.87457 | 23688 ft | 481 kts | 59° |
| 2026-05-04 15:40 | 39.72678 | 3.91212 | 24083 ft | 484 kts | 59° |
| 2026-05-04 15:40 | 39.74389 | 3.94999 | 24502 ft | 486 kts | 59° |
| 2026-05-04 15:40 | 39.76107 | 3.98807 | 24908 ft | 489 kts | 60° |
| 2026-05-04 15:40 | 39.77830 | 4.02630 | 25292 ft | 492 kts | 60° |
| 2026-05-04 15:41 | 39.79563 | 4.06481 | 25665 ft | 495 kts | 60° |
| 2026-05-04 15:41 | 39.81310 | 4.10365 | 26023 ft | 498 kts | 60° |
| 2026-05-04 15:41 | 39.83068 | 4.14278 | 26383 ft | 501 kts | 60° |
| 2026-05-04 15:41 | 39.85035 | 4.17945 | 26694 ft | 504 kts | 46° |
| 2026-05-04 15:42 | 39.87745 | 4.20886 | 27039 ft | 501 kts | 28° |
| 2026-05-04 15:42 | 39.90830 | 4.22811 | 27379 ft | 495 kts | 12° |
| 2026-05-04 15:42 | 39.94188 | 4.23751 | 27720 ft | 491 kts | 4° |
| 2026-05-04 15:42 | 39.97572 | 4.24469 | 27994 ft | 494 kts | 3° |
| 2026-05-04 15:43 | 40.00994 | 4.25182 | 28256 ft | 498 kts | 4° |
| 2026-05-04 15:43 | 40.04392 | 4.25913 | 28545 ft | 502 kts | 4° |
| 2026-05-04 15:43 | 40.07835 | 4.26685 | 28838 ft | 505 kts | 4° |
| 2026-05-04 15:43 | 40.11361 | 4.27502 | 29102 ft | 508 kts | 5° |
| 2026-05-04 15:44 | 40.14774 | 4.28307 | 29367 ft | 511 kts | 5° |
| 2026-05-04 15:44 | 40.18322 | 4.29151 | 29636 ft | 514 kts | 5° |
| 2026-05-04 15:44 | 40.21837 | 4.29989 | 29902 ft | 517 kts | 5° |
| 2026-05-04 15:44 | 40.25399 | 4.30838 | 30128 ft | 520 kts | 5° |
| 2026-05-04 15:45 | 40.28963 | 4.31686 | 30452 ft | 519 kts | 5° |
| 2026-05-04 15:45 | 40.32527 | 4.32536 | 30894 ft | 516 kts | 5° |
| 2026-05-04 15:45 | 40.36023 | 4.33370 | 31350 ft | 513 kts | 5° |
| 2026-05-04 15:45 | 40.39580 | 4.34217 | 31756 ft | 511 kts | 5° |
| 2026-05-04 15:46 | 40.43074 | 4.35048 | 32088 ft | 510 kts | 4° |
| 2026-05-04 15:46 | 40.46521 | 4.35869 | 32399 ft | 510 kts | 4° |
| 2026-05-04 15:46 | 40.50013 | 4.36702 | 32746 ft | 509 kts | 4° |
| 2026-05-04 15:46 | 40.53518 | 4.37537 | 33109 ft | 507 kts | 4° |
| 2026-05-04 15:47 | 40.56991 | 4.38360 | 33440 ft | 506 kts | 4° |
| 2026-05-04 15:47 | 40.60452 | 4.39179 | 33771 ft | 506 kts | 4° |
| 2026-05-04 15:47 | 40.63924 | 4.40002 | 34060 ft | 505 kts | 4° |
| 2026-05-04 15:47 | 40.67337 | 4.40812 | 34353 ft | 504 kts | 4° |
| 2026-05-04 15:48 | 40.70762 | 4.41627 | 34665 ft | 502 kts | 4° |
| 2026-05-04 15:48 | 40.74213 | 4.42449 | 34951 ft | 500 kts | 4° |
| 2026-05-04 15:48 | 40.81035 | 4.44076 | 35513 ft | 498 kts | 4° |
| 2026-05-04 15:49 | 40.84473 | 4.44897 | 35778 ft | 497 kts | 4° |
| 2026-05-04 15:49 | 40.87864 | 4.45708 | 35948 ft | 498 kts | 4° |
| 2026-05-04 15:49 | 40.94658 | 4.47348 | 35937 ft | 501 kts | 4° |
| 2026-05-04 15:50 | 41.01529 | 4.49037 | 35922 ft | 496 kts | 4° |
| 2026-05-04 15:50 | 41.08328 | 4.50704 | 35928 ft | 494 kts | 4° |
| 2026-05-04 15:51 | 41.15059 | 4.52347 | 35932 ft | 492 kts | 4° |
| 2026-05-04 15:51 | 41.21810 | 4.53994 | 35931 ft | 492 kts | 4° |
| 2026-05-04 15:52 | 41.28508 | 4.55634 | 35939 ft | 493 kts | 4° |
| 2026-05-04 15:52 | 41.35282 | 4.57296 | 35938 ft | 494 kts | 4° |
| 2026-05-04 15:53 | 41.42072 | 4.58966 | 35935 ft | 496 kts | 4° |
| 2026-05-04 15:53 | 41.48905 | 4.60652 | 35938 ft | 498 kts | 4° |
| 2026-05-04 15:54 | 41.55717 | 4.62336 | 35937 ft | 500 kts | 4° |
| 2026-05-04 15:54 | 41.62592 | 4.64039 | 35932 ft | 501 kts | 4° |
| 2026-05-04 15:55 | 41.69413 | 4.65878 | 35925 ft | 507 kts | 12° |
| 2026-05-04 15:55 | 41.72716 | 4.67629 | 35931 ft | 514 kts | 23° |
| 2026-05-04 15:55 | 41.75760 | 4.70048 | 35936 ft | 518 kts | 33° |
| 2026-05-04 15:56 | 41.81120 | 4.76605 | 35936 ft | 520 kts | 44° |